Time;durP1;ratioP1;P1;durP2;ratioP2;P2;SDS_P1;SDS_P2;PMS_P1;PMS_P2;Temp;Humidity;BMP_temperature;BMP_pressure;BME280_temperature;BME280_humidity;BME280_pressure;Samples;Min_cycle;Max_cycle;Signal;HPM_P1;HPM_P2
2023/07/15 00:01:05;;;;;;;9.10;3.50;;;;;;;22.70;53.54;100010.20;107860;1258;60309;-70
2023/07/15 00:03:33;;;;;;;5.80;3.30;;;;;;;22.74;53.19;100012.59;107895;1257;73879;-69
2023/07/15 00:06:01;;;;;;;4.10;3.50;;;;;;;22.74;53.12;100014.18;107840;1257;69100;-68
2023/07/15 00:08:27;;;;;;;7.50;3.70;;;;;;;22.73;53.40;100014.63;107948;1257;70793;-69
2023/07/15 00:10:54;;;;;;;15.00;3.50;;;;;;;22.75;53.35;100016.91;107902;1256;61870;-69
2023/07/15 00:13:21;;;;;;;10.00;3.20;;;;;;;22.80;53.12;100018.31;107607;1256;60479;-69
2023/07/15 00:15:50;;;;;;;8.70;3.30;;;;;;;22.78;53.18;100022.08;107838;1257;73821;-69
2023/07/15 00:18:17;;;;;;;4.80;3.10;;;;;;;22.75;53.09;100021.23;107855;1257;70208;-69
2023/07/15 00:20:44;;;;;;;6.70;3.00;;;;;;;22.84;52.68;100023.69;107888;1256;72779;-67
2023/07/15 00:23:17;;;;;;;7.60;2.60;;;;;;;22.86;52.56;100025.45;107883;1257;60515;-69
2023/07/15 00:25:44;;;;;;;4.60;2.80;;;;;;;23.06;52.11;100026.70;107788;1256;60166;-69
2023/07/15 00:28:10;;;;;;;6.30;3.20;;;;;;;22.99;52.41;100029.15;107806;1259;74324;-69
2023/07/15 00:30:37;;;;;;;10.00;3.30;;;;;;;23.01;52.31;100030.90;108456;1255;70189;-67
2023/07/15 00:33:05;;;;;;;8.40;3.10;;;;;;;22.91;52.26;100032.95;107661;1257;72837;-69
2023/07/15 00:35:33;;;;;;;4.80;3.00;;;;;;;23.01;51.88;100036.48;108012;1257;62123;-69
2023/07/15 00:38:00;;;;;;;8.10;3.50;;;;;;;23.11;51.53;100033.39;107692;1256;60611;-69
2023/07/15 00:40:27;;;;;;;6.30;3.10;;;;;;;23.10;51.64;100036.54;107925;1257;60373;-70
2023/07/15 00:43:31;;;;;;;6.10;2.80;;;;;;;23.20;51.35;100032.79;107757;1257;70100;-68
2023/07/15 00:46:22;;;;;;;10.80;2.80;;;;;;;23.25;51.10;100036.98;107676;1257;72828;-69
2023/07/15 00:49:03;;;;;;;7.20;2.80;;;;;;;23.26;51.08;100039.21;107734;1257;61840;-68
2023/07/15 00:51:32;;;;;;;;;;;;;;;23.28;50.89;100040.48;107902;1256;60339;-69
2023/07/15 00:53:59;;;;;;;4.80;2.60;;;;;;;23.37;50.72;100042.92;107777;1257;73272;-68
2023/07/15 00:56:26;;;;;;;5.30;2.80;;;;;;;23.23;51.12;100042.13;107839;1257;69110;-70
2023/07/15 00:58:52;;;;;;;6.10;2.80;;;;;;;23.05;51.40;100038.42;107871;1256;72533;-68
2023/07/15 01:01:19;;;;;;;4.70;3.00;;;;;;;23.10;51.32;100047.11;107628;1263;60476;-68
2023/07/15 01:03:48;;;;;;;5.60;2.80;;;;;;;23.33;50.92;100044.89;107811;1258;60378;-69
2023/07/15 01:06:15;;;;;;;4.50;3.10;;;;;;;23.27;50.74;100044.80;107685;1260;74306;-68
2023/07/15 01:08:42;;;;;;;3.50;2.70;;;;;;;23.34;50.42;100049.08;107826;1257;69045;-68
2023/07/15 01:11:10;;;;;;;4.70;3.00;;;;;;;23.43;50.32;100046.45;107695;1260;72785;-68
2023/07/15 01:13:38;;;;;;;5.50;2.80;;;;;;;23.41;50.34;100049.52;107717;1257;61972;-68
2023/07/15 01:16:05;;;;;;;4.40;2.90;;;;;;;23.35;50.48;100046.30;107677;1262;60322;-69
2023/07/15 01:18:32;;;;;;;8.30;2.70;;;;;;;23.29;50.57;100050.42;107652;1263;73944;-68
2023/07/15 01:20:59;;;;;;;5.90;2.90;;;;;;;23.45;50.37;100048.80;107811;1257;69870;-68
2023/07/15 01:23:29;;;;;;;4.70;3.20;;;;;;;23.50;50.20;100050.78;107555;1257;72622;-68
2023/07/15 01:25:56;;;;;;;6.10;2.90;;;;;;;23.36;50.39;100056.26;107810;1257;62003;-69
2023/07/15 01:28:24;;;;;;;8.10;3.00;;;;;;;23.15;50.81;100056.88;107944;1261;60332;-68
2023/07/15 01:30:51;;;;;;;4.60;3.20;;;;;;;23.11;51.22;100058.30;107914;1257;73798;-69
2023/07/15 01:33:20;;;;;;;3.90;3.00;;;;;;;23.11;51.26;100058.12;107896;1257;70652;-69
2023/07/15 01:35:51;;;;;;;8.10;3.50;;;;;;;23.07;51.45;100058.88;107870;1257;72690;-69
2023/07/15 01:38:17;;;;;;;11.70;3.10;;;;;;;23.10;51.76;100058.63;107815;1260;61967;-69
2023/07/15 01:40:45;;;;;;;5.60;2.90;;;;;;;23.10;51.58;100059.09;107813;1257;60363;-67
2023/07/15 01:43:11;;;;;;;7.70;3.00;;;;;;;23.14;51.77;100060.38;107812;1256;73681;-68
2023/07/15 01:45:39;;;;;;;5.80;2.80;;;;;;;23.15;51.56;100058.55;108774;1256;70836;-69
2023/07/15 01:48:10;;;;;;;10.40;3.20;;;;;;;23.15;51.25;100058.67;107729;1257;72684;-69
2023/07/15 01:50:37;;;;;;;7.90;2.70;;;;;;;23.29;51.19;100057.23;108212;1256;61814;-69
2023/07/15 01:53:04;;;;;;;4.10;2.80;;;;;;;23.30;50.91;100062.03;107952;1257;60341;-69
2023/07/15 01:55:32;;;;;;;4.50;2.80;;;;;;;23.23;50.94;100067.20;107964;1258;73744;-69
2023/07/15 01:57:59;;;;;;;5.90;3.10;;;;;;;23.17;51.13;100069.70;107925;1256;70192;-69
2023/07/15 02:00:27;;;;;;;6.70;3.50;;;;;;;23.01;51.58;100072.48;107736;1260;72744;-69
2023/07/15 02:02:54;;;;;;;4.20;2.80;;;;;;;23.05;51.24;100072.31;108425;1257;62121;-69
2023/07/15 02:05:21;;;;;;;5.20;3.10;;;;;;;23.09;51.39;100078.73;107952;1256;60447;-69
2023/07/15 02:07:48;;;;;;;5.20;2.90;;;;;;;22.57;52.46;100083.52;107799;1257;73619;-69
2023/07/15 02:10:15;;;;;;;4.80;2.80;;;;;;;22.43;53.04;100085.85;108015;1256;70104;-68
2023/07/15 02:12:43;;;;;;;11.20;3.60;;;;;;;22.43;53.50;100087.30;107933;1257;72372;-69
2023/07/15 02:15:09;;;;;;;4.30;3.00;;;;;;;22.38;53.54;100089.98;107923;1257;62049;-69
2023/07/15 02:17:36;;;;;;;4.80;3.20;;;;;;;22.65;52.95;100089.41;107825;1256;60361;-68
2023/07/15 02:20:07;;;;;;;4.90;2.70;;;;;;;22.70;52.86;100091.52;107901;1256;73927;-68
2023/07/15 02:22:34;;;;;;;6.30;3.10;;;;;;;22.49;53.53;100092.73;107820;1256;70341;-68
2023/07/15 02:25:01;;;;;;;6.00;2.90;;;;;;;22.83;52.67;100092.69;107777;1258;72222;-69
2023/07/15 02:27:30;;;;;;;5.70;2.80;;;;;;;23.09;51.75;100090.02;108539;1256;61638;-69
2023/07/15 02:29:56;;;;;;;7.40;3.30;;;;;;;23.21;51.73;100093.21;107804;1255;60458;-70
2023/07/15 02:32:39;;;;;;;7.10;3.10;;;;;;;23.35;51.50;100098.95;107845;1259;74271;-69
2023/07/15 02:35:11;;;;;;;9.90;3.10;;;;;;;23.28;51.38;100102.67;107671;1258;70353;-67
2023/07/15 02:37:39;;;;;;;5.00;3.00;;;;;;;23.15;51.97;100101.81;107974;1257;71444;-68
2023/07/15 02:40:08;;;;;;;4.70;2.80;;;;;;;23.08;52.28;100102.85;107959;1256;60750;-69
2023/07/15 02:42:36;;;;;;;7.70;3.20;;;;;;;23.15;52.37;100101.52;107769;1257;60553;-69
2023/07/15 02:45:06;;;;;;;5.70;3.30;;;;;;;23.12;52.56;100106.26;107958;1255;74047;-68
2023/07/15 02:47:33;;;;;;;10.20;3.20;;;;;;;23.29;52.03;100108.45;107988;1257;69798;-71
2023/07/15 02:50:05;;;;;;;7.40;3.10;;;;;;;23.37;51.73;100110.77;107941;1256;71612;-68
2023/07/15 02:52:34;;;;;;;;;;;;;;;23.37;51.80;100112.04;107821;1255;60625;-69
2023/07/15 02:55:02;;;;;;;3.40;3.10;;;;;;;23.34;51.86;100113.21;107885;1259;60332;-69
2023/07/15 02:57:32;;;;;;;6.50;3.30;;;;;;;23.36;51.75;100116.40;108304;1256;73689;-70
2023/07/15 02:59:58;;;;;;;6.60;3.10;;;;;;;23.37;51.96;100113.85;107910;1256;70298;-68
2023/07/15 03:02:28;;;;;;;10.30;3.20;;;;;;;23.42;52.07;100118.39;107938;1257;72447;-68
2023/07/15 03:04:55;;;;;;;4.40;3.00;;;;;;;23.52;51.87;100115.81;108004;1256;62041;-70
2023/07/15 03:07:21;;;;;;;8.70;2.90;;;;;;;23.56;51.68;100118.73;107817;1256;60305;-68
2023/07/15 03:09:48;;;;;;;5.40;3.20;;;;;;;23.72;51.38;100120.17;107911;1257;72702;-69
2023/07/15 03:12:15;;;;;;;7.00;3.10;;;;;;;23.82;51.29;100119.96;107861;1257;69708;-69
2023/07/15 03:14:42;;;;;;;7.60;2.40;;;;;;;23.88;51.10;100120.29;107723;1257;73345;-69
2023/07/15 03:17:10;;;;;;;8.10;2.90;;;;;;;24.00;50.67;100122.91;107941;1256;61822;-70
2023/07/15 03:19:37;;;;;;;7.90;3.00;;;;;;;24.20;50.24;100125.71;107933;1257;60467;-69
2023/07/15 03:22:05;;;;;;;6.20;3.00;;;;;;;24.34;49.89;100125.48;107942;1257;73894;-69
2023/07/15 03:24:33;;;;;;;4.80;2.70;;;;;;;24.53;49.51;100119.02;107886;1257;68986;-70
2023/07/15 03:27:00;;;;;;;5.30;3.50;;;;;;;24.68;49.20;100118.34;108008;1257;72798;-69
2023/07/15 03:29:27;;;;;;;5.70;3.20;;;;;;;24.79;48.84;100115.09;107938;1256;61980;-69
2023/07/15 03:31:54;;;;;;;6.60;3.30;;;;;;;24.81;48.88;100120.64;107929;1255;60283;-69
2023/07/15 03:34:21;;;;;;;7.50;3.30;;;;;;;25.05;48.15;100120.44;107946;1255;73566;-68
2023/07/15 03:36:50;;;;;;;5.50;3.20;;;;;;;25.09;48.00;100123.52;107949;1257;70256;-69
2023/07/15 03:39:19;;;;;;;8.60;3.10;;;;;;;25.19;47.95;100123.06;107967;1257;72499;-69
2023/07/15 03:41:46;;;;;;;5.40;2.90;;;;;;;25.23;47.79;100124.63;107783;1260;61809;-69
2023/07/15 03:44:13;;;;;;;6.00;2.90;;;;;;;25.37;47.36;100124.39;107860;1256;60322;-69
2023/07/15 03:46:39;;;;;;;5.60;3.10;;;;;;;25.47;47.23;100122.30;107866;1256;73783;-69
2023/07/15 03:49:07;;;;;;;6.30;3.20;;;;;;;25.69;46.92;100119.87;107843;1257;70328;-69
2023/07/15 03:51:37;;;;;;;4.10;3.00;;;;;;;25.86;46.56;100122.00;107846;1256;72766;-69
2023/07/15 03:54:05;;;;;;;5.60;2.50;;;;;;;25.89;46.43;100126.86;107903;1257;60979;-70
2023/07/15 03:56:33;;;;;;;4.60;2.80;;;;;;;26.14;46.00;100126.14;107951;1255;60440;-69
2023/07/15 03:58:59;;;;;;;6.10;3.30;;;;;;;26.39;45.61;100125.50;108003;1257;75337;-69
2023/07/15 04:01:26;;;;;;;8.10;3.20;;;;;;;26.55;45.06;100124.79;107886;1256;68806;-69
2023/07/15 04:03:53;;;;;;;4.70;3.10;;;;;;;26.68;44.87;100126.58;107893;1256;73139;-69
2023/07/15 04:06:19;;;;;;;3.60;2.70;;;;;;;26.82;44.58;100126.88;108020;1255;61653;-69
2023/07/15 04:08:46;;;;;;;8.60;3.20;;;;;;;27.03;44.04;100127.33;107918;1255;60228;-69
2023/07/15 04:11:12;;;;;;;6.30;3.20;;;;;;;27.13;43.58;100131.25;107807;1257;73686;-69
2023/07/15 04:13:40;;;;;;;6.40;2.80;;;;;;;27.39;43.15;100131.42;107910;1257;70755;-68
2023/07/15 04:16:07;;;;;;;7.10;3.10;;;;;;;27.55;42.82;100134.56;107921;1256;72740;-68
2023/07/15 04:18:34;;;;;;;4.30;2.80;;;;;;;27.73;42.49;100138.00;107908;1256;61890;-70
2023/07/15 04:21:01;;;;;;;6.40;2.80;;;;;;;27.75;42.17;100135.94;107894;1255;60447;-68
2023/07/15 04:23:28;;;;;;;6.60;3.10;;;;;;;27.76;42.45;100133.14;107885;1256;72645;-70
2023/07/15 04:25:54;;;;;;;12.70;3.20;;;;;;;27.90;42.11;100138.17;107825;1256;70328;-69
2023/07/15 04:28:21;;;;;;;8.00;3.10;;;;;;;28.03;41.91;100138.67;107843;1256;73276;-69
2023/07/15 04:30:48;;;;;;;5.70;2.90;;;;;;;28.18;41.72;100144.28;107824;1256;62118;-69
2023/07/15 04:33:16;;;;;;;7.30;2.90;;;;;;;28.36;40.99;100140.84;107913;1255;60294;-69
2023/07/15 04:35:45;;;;;;;7.40;2.60;;;;;;;28.62;40.88;100148.27;107901;1257;74126;-70
2023/07/15 04:38:12;;;;;;;6.00;3.60;;;;;;;28.87;40.35;100150.83;107891;1257;70245;-70
2023/07/15 04:40:40;;;;;;;5.80;3.30;;;;;;;29.06;40.05;100152.45;107960;1256;72683;-69
2023/07/15 04:43:06;;;;;;;7.10;3.20;;;;;;;29.12;39.73;100154.14;107963;1256;60472;-69
2023/07/15 04:45:33;;;;;;;5.20;2.90;;;;;;;29.20;39.40;100154.08;107919;1255;60459;-70
2023/07/15 04:48:00;;;;;;;3.80;3.10;;;;;;;29.43;38.94;100152.92;107894;1259;74161;-70
2023/07/15 04:50:27;;;;;;;5.60;3.10;;;;;;;29.61;38.38;100154.75;107715;1256;70083;-69
2023/07/15 04:52:54;;;;;;;6.50;2.90;;;;;;;29.71;38.63;100156.14;107910;1257;73604;-69
2023/07/15 04:55:22;;;;;;;6.80;3.40;;;;;;;29.97;38.21;100152.00;107913;1256;60294;-69
2023/07/15 04:57:51;;;;;;;3.50;2.90;;;;;;;30.17;37.43;100158.00;107970;1255;60010;-70
2023/07/15 05:00:20;;;;;;;7.30;3.20;;;;;;;30.36;37.16;100156.09;107731;1256;73997;-71
2023/07/15 05:02:47;;;;;;;3.30;2.80;;;;;;;30.57;37.16;100160.55;107660;1257;70383;-69
2023/07/15 05:05:14;;;;;;;5.50;2.70;;;;;;;30.84;36.85;100159.15;109164;1254;72752;-70
2023/07/15 05:07:41;;;;;;;6.70;3.20;;;;;;;31.12;36.07;100156.30;108558;1254;59327;-70
2023/07/15 05:10:24;;;;;;;6.30;2.90;;;;;;;31.23;35.89;100158.88;107860;1254;60275;-69
2023/07/15 05:12:51;;;;;;;3.90;2.60;;;;;;;31.27;35.78;100162.02;107908;1254;73819;-69
2023/07/15 05:15:17;;;;;;;5.40;2.50;;;;;;;31.35;35.74;100160.81;107972;1254;70165;-70
2023/07/15 05:17:44;;;;;;;4.60;2.30;;;;;;;31.57;35.57;100164.78;107954;1254;72666;-71
2023/07/15 05:20:13;;;;;;;7.70;2.90;;;;;;;31.95;34.60;100163.41;107938;1254;60276;-71
2023/07/15 05:22:40;;;;;;;4.60;2.70;;;;;;;32.05;34.15;100161.66;107933;1254;60184;-70
2023/07/15 05:25:07;;;;;;;4.30;2.50;;;;;;;31.89;34.37;100161.86;108006;1254;73694;-69
2023/07/15 05:27:34;;;;;;;3.70;2.20;;;;;;;31.95;34.34;100162.53;108004;1254;70320;-70
2023/07/15 05:30:01;;;;;;;6.10;2.50;;;;;;;32.15;34.12;100168.63;107912;1254;72372;-69
2023/07/15 05:32:28;;;;;;;3.80;2.70;;;;;;;32.25;33.73;100166.57;107964;1254;60436;-69
2023/07/15 05:34:55;;;;;;;6.30;2.90;;;;;;;32.53;33.72;100165.58;108012;1254;60561;-71
2023/07/15 05:37:22;;;;;;;10.10;2.30;;;;;;;32.86;33.25;100167.47;107998;1254;73816;-70
2023/07/15 05:39:48;;;;;;;4.30;2.40;;;;;;;32.77;33.44;100169.71;107929;1258;60475;-71
2023/07/15 05:42:15;;;;;;;4.40;2.30;;;;;;;32.91;32.97;100174.55;107958;1254;72613;-71
2023/07/15 05:44:41;;;;;;;3.90;2.60;;;;;;;33.07;32.51;100174.23;107847;1254;60184;-70
2023/07/15 05:47:08;;;;;;;4.40;2.60;;;;;;;33.21;31.99;100181.02;107913;1254;62045;-70
2023/07/15 05:49:35;;;;;;;3.70;2.40;;;;;;;33.11;31.91;100180.80;107917;1254;73785;-69
2023/07/15 05:52:02;;;;;;;4.20;2.40;;;;;;;33.28;31.77;100176.77;107919;1254;70264;-71
2023/07/15 05:54:28;;;;;;;6.20;2.60;;;;;;;33.34;31.76;100176.36;107920;1254;71356;-71
2023/07/15 05:56:55;;;;;;;3.70;2.30;;;;;;;33.32;31.97;100173.55;107932;1254;60370;-70
2023/07/15 05:59:21;;;;;;;3.20;2.40;;;;;;;33.68;31.89;100170.22;107811;1254;60281;-70
2023/07/15 06:01:48;;;;;;;4.50;2.60;;;;;;;33.98;31.39;100171.07;107936;1254;65141;-70
2023/07/15 06:04:15;;;;;;;5.60;2.40;;;;;;;34.23;30.56;100170.26;108009;1254;70118;-71
2023/07/15 06:06:41;;;;;;;4.50;2.70;;;;;;;34.30;30.63;100170.71;107972;1254;63966;-71
2023/07/15 06:09:08;;;;;;;5.40;2.40;;;;;;;34.29;29.95;100175.17;107939;1254;60172;-72
2023/07/15 06:11:35;;;;;;;5.60;2.60;;;;;;;34.24;30.28;100175.55;108026;1257;60440;-71
2023/07/15 06:14:04;;;;;;;5.60;2.20;;;;;;;34.26;30.33;100176.72;107961;1254;65041;-70
2023/07/15 06:16:31;;;;;;;6.00;2.60;;;;;;;34.26;30.01;100174.28;108030;1254;60238;-71
2023/07/15 06:18:58;;;;;;;4.60;2.30;;;;;;;34.61;29.63;100170.73;107989;1254;64461;-73
2023/07/15 06:21:25;;;;;;;5.00;2.30;;;;;;;34.83;29.55;100176.17;107945;1254;60436;-70
2023/07/15 06:23:52;;;;;;;4.90;2.30;;;;;;;35.02;29.63;100173.92;107873;1254;60435;-70
2023/07/15 06:26:19;;;;;;;5.10;2.20;;;;;;;35.38;28.74;100172.20;107893;1254;60551;-72
2023/07/15 06:28:46;;;;;;;6.10;2.20;;;;;;;35.60;28.48;100177.86;107891;1254;61491;-70
2023/07/15 06:31:14;;;;;;;5.50;2.00;;;;;;;35.79;27.89;100179.02;107878;1254;62742;-71
2023/07/15 06:33:44;;;;;;;4.50;2.00;;;;;;;35.83;27.47;100178.85;107924;1256;60194;-70
2023/07/15 06:36:11;;;;;;;4.20;2.00;;;;;;;35.90;27.67;100177.17;107979;1254;60625;-69
2023/07/15 06:38:41;;;;;;;3.40;1.90;;;;;;;35.99;27.26;100180.39;107740;1254;65585;-70
2023/07/15 06:41:08;;;;;;;5.40;2.00;;;;;;;36.01;27.16;100181.90;107961;1254;61645;-71
2023/07/15 06:43:35;;;;;;;7.10;2.30;;;;;;;36.09;27.19;100181.34;107939;1254;63923;-71
2023/07/15 06:46:02;;;;;;;4.40;2.10;;;;;;;36.20;26.95;100177.23;107923;1254;60316;-71
2023/07/15 06:48:29;;;;;;;3.20;2.00;;;;;;;36.24;26.65;100178.49;107860;1254;60440;-70
2023/07/15 06:50:55;;;;;;;4.80;2.00;;;;;;;36.28;27.03;100176.21;107909;1254;65025;-71
2023/07/15 06:53:22;;;;;;;4.30;1.60;;;;;;;36.44;26.64;100179.27;107950;1254;60295;-72
2023/07/15 06:55:50;;;;;;;4.00;2.00;;;;;;;36.68;26.25;100183.38;107922;1258;63983;-71
2023/07/15 06:58:24;;;;;;;6.00;1.90;;;;;;;36.78;26.05;100182.94;107945;1254;60512;-72
2023/07/15 07:00:51;;;;;;;6.90;2.20;;;;;;;36.88;26.26;100181.80;107999;1254;60447;-70
2023/07/15 07:03:20;;;;;;;5.60;2.20;;;;;;;37.04;25.66;100183.83;107951;1254;65081;-71
2023/07/15 07:05:47;;;;;;;4.70;2.30;;;;;;;37.36;25.35;100190.37;107869;1258;70962;-71
2023/07/15 07:08:14;;;;;;;3.10;1.60;;;;;;;37.51;25.22;100191.66;108202;1254;64023;-71
2023/07/15 07:10:40;;;;;;;4.40;2.10;;;;;;;37.41;24.98;100190.89;107844;1254;59641;-72
2023/07/15 07:13:07;;;;;;;3.90;2.20;;;;;;;37.41;25.19;100193.17;107791;1254;60215;-71
2023/07/15 07:15:34;;;;;;;3.00;2.00;;;;;;;37.52;25.11;100194.92;107954;1254;65129;-71
2023/07/15 07:18:00;;;;;;;4.90;1.80;;;;;;;37.76;24.96;100191.79;108012;1254;61487;-71
2023/07/15 07:20:27;;;;;;;4.90;2.70;;;;;;;37.94;24.79;100194.05;107977;1254;63728;-70
2023/07/15 07:22:54;;;;;;;6.40;2.10;;;;;;;38.16;24.74;100194.91;108022;1254;60423;-72
2023/07/15 07:25:21;;;;;;;3.50;1.70;;;;;;;38.05;24.16;100198.80;108020;1254;63226;-71
2023/07/15 07:27:48;;;;;;;2.70;1.90;;;;;;;37.81;24.14;100205.06;107967;1254;65140;-71
2023/07/15 07:30:14;;;;;;;5.40;1.90;;;;;;;37.86;24.13;100208.33;107956;1258;61748;-71
2023/07/15 07:32:41;;;;;;;2.50;1.50;;;;;;;37.97;23.84;100208.51;107970;1254;65829;-72
2023/07/15 07:37:35;;;;;;;2.90;1.70;;;;;;;36.54;25.63;100212.05;104873;1290;601036;-71
2023/07/15 07:40:02;;;;;;;3.10;1.60;;;;;;;37.61;24.54;100214.36;107214;1267;59255;-70
2023/07/15 07:42:30;;;;;;;2.70;1.30;;;;;;;37.66;23.97;100216.36;107273;1264;59397;-70
2023/07/15 07:44:57;;;;;;;2.10;1.40;;;;;;;37.84;24.14;100217.79;107175;1263;62754;-72
2023/07/15 07:47:24;;;;;;;4.80;1.60;;;;;;;38.10;23.64;100217.08;107227;1269;60129;-71
2023/07/15 07:49:52;;;;;;;4.70;1.60;;;;;;;38.22;23.28;100217.79;107127;1267;63727;-71
2023/07/15 07:52:19;;;;;;;9.50;1.60;;;;;;;38.32;23.10;100218.21;107091;1264;288469;-72
2023/07/15 07:54:47;;;;;;;4.90;2.00;;;;;;;38.36;23.14;100220.55;107373;1263;59196;-70
2023/07/15 07:57:15;;;;;;;3.30;1.10;;;;;;;38.47;22.86;100218.27;107319;1263;63286;-71
2023/07/15 07:59:43;;;;;;;5.80;1.80;;;;;;;38.54;22.70;100225.71;107302;1263;61748;-71
2023/07/15 08:02:10;;;;;;;2.40;1.40;;;;;;;38.40;22.65;100224.20;107282;1265;63837;-72
2023/07/15 08:04:38;;;;;;;2.90;1.40;;;;;;;38.44;22.65;100226.98;107194;1267;59535;-71
2023/07/15 08:07:05;;;;;;;4.30;1.60;;;;;;;38.49;22.77;100227.80;107307;1264;59044;-74
2023/07/15 08:09:33;;;;;;;5.40;1.70;;;;;;;38.19;22.87;100225.31;107318;1264;64165;-72
2023/07/15 08:12:00;;;;;;;5.70;1.80;;;;;;;38.40;23.12;100227.92;107304;1263;60551;-71
2023/07/15 08:14:28;;;;;;;5.10;1.90;;;;;;;38.45;23.12;100228.86;107319;1267;64413;-71
2023/07/15 08:16:55;;;;;;;3.70;1.60;;;;;;;38.58;22.36;100230.31;108103;1254;59448;-71
2023/07/15 08:19:23;;;;;;;3.20;1.30;;;;;;;38.80;22.23;100229.16;108128;1257;59100;-71
2023/07/15 08:21:51;;;;;;;3.20;1.80;;;;;;;38.97;22.12;100230.23;108146;1254;64189;-72
2023/07/15 08:24:18;;;;;;;4.30;1.70;;;;;;;39.11;21.71;100229.98;108070;1254;63340;-70
2023/07/15 08:26:45;;;;;;;3.40;1.50;;;;;;;39.02;21.70;100228.88;108080;1257;63684;-71
2023/07/15 08:29:13;;;;;;;5.50;1.70;;;;;;;38.78;21.53;100232.41;108106;1254;59531;-71
2023/07/15 08:31:40;;;;;;;5.20;1.70;;;;;;;38.68;21.95;100228.18;108075;1254;59599;-72
2023/07/15 08:34:08;;;;;;;5.30;1.70;;;;;;;38.89;21.93;100227.07;108268;1254;64194;-71
2023/07/15 08:36:36;;;;;;;3.20;1.40;;;;;;;39.11;22.28;100224.19;108147;1254;62656;-72
2023/07/15 08:39:03;;;;;;;3.70;1.40;;;;;;;39.29;21.91;100222.23;108213;1254;62606;-72
2023/07/15 08:41:31;;;;;;;5.00;1.40;;;;;;;39.46;21.33;100223.04;108159;1254;59490;-71
2023/07/15 08:43:58;;;;;;;6.70;1.60;;;;;;;39.66;21.03;100223.45;108136;1252;59637;-71
2023/07/15 08:46:28;;;;;;;3.70;1.70;;;;;;;39.69;20.65;100223.97;108118;1254;66180;-71
2023/07/15 08:48:57;;;;;;;3.70;1.50;;;;;;;39.68;20.53;100221.90;108141;1254;61558;-70
2023/07/15 08:51:29;;;;;;;3.90;1.40;;;;;;;39.81;20.72;100220.40;108136;1254;63769;-70
2023/07/15 08:53:56;;;;;;;3.40;1.60;;;;;;;40.03;20.56;100215.17;108093;1254;59618;-71
2023/07/15 08:56:24;;;;;;;5.80;1.60;;;;;;;40.01;20.05;100210.48;108102;1254;59541;-71
2023/07/15 08:58:53;;;;;;;5.80;1.50;;;;;;;40.03;20.21;100205.12;108172;1257;62988;-71
2023/07/15 09:01:21;;;;;;;4.70;1.40;;;;;;;39.94;20.42;100204.81;107983;1253;60438;-71
2023/07/15 09:03:49;;;;;;;3.40;1.60;;;;;;;40.10;20.38;100204.71;108040;1252;62544;-73
2023/07/15 09:06:17;;;;;;;2.30;1.20;;;;;;;40.38;20.46;100203.08;108032;1254;59615;-71
2023/07/15 09:08:50;;;;;;;3.40;1.20;;;;;;;40.30;20.42;100200.85;107941;1254;58338;-72
2023/07/15 09:11:17;;;;;;;10.20;1.90;;;;;;;40.40;20.10;100202.67;108570;1252;64143;-70
2023/07/15 09:13:46;;;;;;;2.70;1.70;;;;;;;40.38;19.88;100209.43;108135;1253;60371;-71
2023/07/15 09:16:13;;;;;;;4.60;1.50;;;;;;;40.26;19.56;100207.20;108169;1254;62557;-72
2023/07/15 09:18:42;;;;;;;3.10;1.30;;;;;;;40.26;19.39;100205.60;108079;1254;58846;-71
2023/07/15 09:21:12;;;;;;;3.00;1.50;;;;;;;40.12;19.88;100208.38;107960;1259;59629;-72
2023/07/15 09:23:42;;;;;;;2.10;1.10;;;;;;;39.85;19.99;100215.14;107983;1254;64154;-72
2023/07/15 09:26:13;;;;;;;4.30;1.30;;;;;;;40.00;19.98;100212.84;108117;1253;60116;-71
2023/07/15 09:28:41;;;;;;;2.60;1.10;;;;;;;40.20;19.55;100206.52;108015;1254;63756;-70
2023/07/15 09:31:08;;;;;;;4.90;1.30;;;;;;;40.23;19.50;100206.79;108069;1254;60404;-73
2023/07/15 09:33:39;;;;;;;1.50;1.00;;;;;;;40.22;19.27;100206.50;108068;1253;59676;-70
2023/07/15 09:36:08;;;;;;;6.40;2.40;;;;;;;40.33;19.52;100212.48;108208;1257;64105;-71
2023/07/15 09:38:37;;;;;;;6.00;1.60;;;;;;;40.54;19.15;100209.85;108044;1254;60076;-71
2023/07/15 09:41:11;;;;;;;2.80;1.10;;;;;;;40.79;19.17;100211.71;108010;1254;63759;-71
2023/07/15 09:43:53;;;;;;;2.40;1.40;;;;;;;40.80;18.92;100214.55;107965;1254;59599;-72
2023/07/15 09:46:21;;;;;;;5.70;1.20;;;;;;;40.44;19.35;100213.98;107895;1254;59369;-71
2023/07/15 09:48:50;;;;;;;3.40;1.50;;;;;;;40.14;19.09;100210.13;108085;1254;64651;-70
2023/07/15 09:51:17;;;;;;;5.00;1.50;;;;;;;39.82;19.36;100216.73;108072;1254;60076;-72
2023/07/15 09:53:53;;;;;;;4.20;1.40;;;;;;;39.71;19.19;100218.41;108138;1253;62438;-70
2023/07/15 09:56:31;;;;;;;5.00;2.10;;;;;;;39.64;18.90;100215.66;108164;1253;59651;-69
2023/07/15 09:59:15;;;;;;;3.10;1.70;;;;;;;39.77;19.08;100217.45;108125;1254;59382;-70
2023/07/15 10:01:44;;;;;;;5.10;1.80;;;;;;;40.01;19.14;100214.73;108216;1254;64142;-72
2023/07/15 10:04:31;;;;;;;3.40;1.80;;;;;;;40.10;18.78;100210.94;108186;1253;61372;-71
2023/07/15 10:06:59;;;;;;;2.40;1.30;;;;;;;40.13;18.95;100209.00;108158;1253;63735;-71
2023/07/15 10:09:27;;;;;;;3.10;1.30;;;;;;;39.91;19.32;100220.59;108092;1254;59660;-70
2023/07/15 10:11:54;;;;;;;7.80;1.80;;;;;;;39.60;19.53;100216.73;108075;1253;59484;-71
2023/07/15 10:14:22;;;;;;;6.50;1.50;;;;;;;39.20;19.90;100214.02;108046;1252;62942;-70
2023/07/15 10:17:12;;;;;;;1.90;1.30;;;;;;;39.05;20.03;100219.73;108128;1254;61438;-71
2023/07/15 10:19:46;;;;;;;4.70;1.50;;;;;;;39.20;20.23;100214.36;108132;1253;63731;-71
2023/07/15 10:22:15;;;;;;;1.80;1.20;;;;;;;39.60;20.11;100210.21;108169;1254;59137;-70
2023/07/15 10:24:44;;;;;;;2.70;1.60;;;;;;;39.64;18.72;100205.80;108057;1252;59668;-70
2023/07/15 10:27:12;;;;;;;3.30;1.70;;;;;;;39.48;18.84;100205.70;108337;1252;64152;-70
2023/07/15 10:29:40;;;;;;;4.30;1.50;;;;;;;39.57;19.13;100204.61;107921;1254;61386;-70
2023/07/15 10:32:12;;;;;;;6.10;1.50;;;;;;;39.81;18.89;100204.73;108013;1256;64235;-72
2023/07/15 10:34:48;;;;;;;2.20;1.30;;;;;;;39.60;18.73;100199.46;108103;1253;59575;-71
2023/07/15 10:37:17;;;;;;;3.00;1.50;;;;;;;39.31;19.41;100194.94;108207;1253;59484;-70
2023/07/15 10:39:47;;;;;;;3.20;1.30;;;;;;;39.35;19.47;100195.88;108087;1253;64131;-71
2023/07/15 10:42:15;;;;;;;;;;;;;;;39.33;19.88;100189.91;108343;1252;61398;-70
2023/07/15 10:44:53;;;;;;;5.00;1.40;;;;;;;39.37;19.92;100192.95;108227;1253;62451;-71
2023/07/15 10:47:20;;;;;;;2.00;1.20;;;;;;;39.38;19.08;100185.23;108100;1254;59158;-71
2023/07/15 10:49:48;;;;;;;4.60;1.40;;;;;;;39.37;19.24;100186.63;108068;1253;59294;-71
2023/07/15 10:52:22;;;;;;;4.10;1.40;;;;;;;39.62;19.22;100184.35;108133;1254;64769;-70
2023/07/15 10:54:53;;;;;;;3.10;1.30;;;;;;;39.65;19.37;100181.88;108220;1253;69238;-71
2023/07/15 10:57:25;;;;;;;4.00;1.40;;;;;;;39.58;18.92;100178.52;108273;1254;62423;-71
2023/07/15 10:59:56;;;;;;;5.60;1.50;;;;;;;39.70;19.40;100182.58;108248;1254;59169;-71
2023/07/15 11:02:24;;;;;;;2.00;1.20;;;;;;;39.85;18.94;100179.67;108143;1253;59135;-71
2023/07/15 11:04:51;;;;;;;2.40;1.10;;;;;;;39.91;18.61;100180.83;108602;1253;64119;-70
2023/07/15 11:07:19;;;;;;;4.00;1.70;;;;;;;40.21;18.83;100182.22;108018;1254;60132;-72
2023/07/15 11:09:46;;;;;;;2.90;1.40;;;;;;;40.30;18.53;100184.08;107954;1254;63757;-72
2023/07/15 11:12:14;;;;;;;3.10;1.20;;;;;;;40.02;18.43;100183.00;108442;1253;59557;-71
2023/07/15 11:14:43;;;;;;;4.00;1.70;;;;;;;39.60;18.89;100187.85;108116;1254;59672;-71
2023/07/15 11:17:13;;;;;;;4.70;2.80;;;;;;;38.95;18.98;100186.55;108206;1253;64160;-70
2023/07/15 11:19:45;;;;;;;5.80;2.10;;;;;;;38.54;18.98;100180.92;108161;1256;60096;-71
2023/07/15 11:22:12;;;;;;;8.40;2.20;;;;;;;38.28;19.07;100179.72;108045;1252;62821;-70
2023/07/15 11:24:40;;;;;;;4.10;2.00;;;;;;;38.09;19.47;100185.59;107872;1260;59634;-71